This is the latest recevied weather packets stored in our database for station/object IK6IHU-3. If no packets are shown the sender has not sent any weather packets the latest 10 day(s).
| Time | Temp. | Humidity | Pressure | Rain* | Wind** | Luminosity | Snow |
|---|---|---|---|---|---|---|---|
| 1777431848 | 15.56° C | 63% | 1014 hPa | 0 mm | - | 0 W/m² | - |
| 1777431788 | 15.56° C | 63% | 1014.2 hPa | 0 mm | - | 0 W/m² | - |
| 1777430288 | 15° C | 66% | 1014.1 hPa | 0 mm | - | 0 W/m² | - |
| 1777430172 | 15° C | 66% | 1014.1 hPa | 0 mm | - | 0 W/m² | - |
| 1777429928 | 15° C | 66% | 1014.1 hPa | 0 mm | - | 0 W/m² | - |
| 1777429688 | 15° C | 65% | 1014.2 hPa | 0 mm | - | 0 W/m² | - |
| 1777429448 | 15.56° C | 64% | 1014.1 hPa | 0 mm | - | 0 W/m² | - |
| 1777429269 | 16.11° C | 61% | 1014.2 hPa | 0 mm | - | 0 W/m² | - |
| 1777429088 | 16.11° C | 61% | 1013.9 hPa | 0 mm | - | 0 W/m² | - |
| 1777428428 | 16.11° C | 60% | 1014.1 hPa | 0 mm | - | 0 W/m² | - |
| 1777426688 | 15.56° C | 65% | 1013.7 hPa | 0 mm | - | 0 W/m² | - |
| 1777426628 | 15.56° C | 65% | 1013.9 hPa | 0 mm | - | 0 W/m² | - |
| 1777426388 | 15.56° C | 65% | 1013.9 hPa | 0 mm | - | 0 W/m² | - |
| 1777425789 | 15° C | 66% | 1013.9 hPa | 0 mm | - | 0 W/m² | - |
| 1777425548 | 15.56° C | 66% | 1013.9 hPa | 0 mm | - | 0 W/m² | - |
| 1777425248 | 16.11° C | 61% | 1014 hPa | 0 mm | - | 0 W/m² | - |
| 1777425188 | 16.67° C | 61% | 1013.9 hPa | 0 mm | - | 0 W/m² | - |
| 1777424888 | 16.11° C | 60% | 1013.9 hPa | 0 mm | - | 0 W/m² | - |
| 1777424648 | 16.11° C | 63% | 1014 hPa | 0 mm | - | 0 W/m² | - |
| 1777423988 | 15.56° C | 63% | 1014.1 hPa | 0 mm | - | 0 W/m² | - |
| 1777423688 | 16.11° C | 60% | 1014 hPa | 0 mm | - | 0 W/m² | - |
| 1777423448 | 16.11° C | 62% | 1014.2 hPa | 0 mm | - | 0 W/m² | - |
| 1777423388 | 16.11° C | 62% | 1013.9 hPa | 0 mm | - | 0 W/m² | - |
| 1777423088 | 15.56° C | 61% | 1014.1 hPa | 0 mm | - | 0 W/m² | - |
| 1777423028 | 15.56° C | 60% | 1014.2 hPa | 0 mm | - | 0 W/m² | - |
* Rain latest hour (hover to see other rain measurements)
** Current wind speed in m/s (hover to see current wind gust speed)